Flight Track Log - Related Links

Times and Time Zones

All times are in EDT time to prevent confusion due to time zone crossing. See the N27XP flight status page for this flight to view local times or setup timezone preferences in your user account.

Time Position Orientation Groundspeed Altitude Reporting Facility
EDT Latitude Longitude Course Direction KTS MPH feet Rate Location/Type
Thu 07:23:57 AM 35.3606 -79.4175 338° Northwest 270 311 4,700  Level Washington Center
Thu 07:24:58 AM 35.4172 -79.4661 325° Northwest 277 319 7,000 2,269 Climbing Washington Center
Thu 07:25:56 AM 35.4944 -79.5283 327° Northwest 288 331 9,200 1,922 Climbing Washington Center
Thu 07:27:31 AM 35.6011 -79.6150 327° Northwest 296 341 11,900 1,742 Climbing Atlanta Center
Thu 07:28:00 AM 35.7400 -79.7450 338° Northwest  Level FlightAware Approximate
Thu 07:28:31 AM 35.6661 -79.6856 319° Northwest 301 346 13,700  Level Atlanta Center
Thu 07:29:31 AM 35.7342 -79.7844 310° West 324 373 15,600 1,750 Climbing Atlanta Center
Thu 07:30:31 AM 35.7853 -79.8739 305° West 330 380 17,200 1,550 Climbing Atlanta Center
Thu 07:31:31 AM 35.8261 -79.9742 297° West 335 386 18,700 1,750 Climbing Atlanta Center
Thu 07:32:31 AM 35.8669 -80.0722 297° West 330 380 20,700 1,750 Climbing Atlanta Center
Thu 07:33:31 AM 35.9092 -80.1572 302° West 318 366 22,200 1,150 Climbing Atlanta Center
Thu 07:34:31 AM 35.9683 -80.2442 310° West 325 374 23,000 800 Climbing Atlanta Center
Thu 07:35:31 AM 36.0339 -80.3386 311° West 345 397 23,800 850 Climbing Atlanta Center
Thu 07:36:31 AM 36.1033 -80.4358 311° West 364 419 24,700 1,350 Climbing Atlanta Center
Thu 07:37:31 AM 36.1797 -80.5456 311° West 375 432 26,500 1,650 Climbing Atlanta Center
Thu 07:38:31 AM 36.2569 -80.6272 320° Northwest 374 430 28,000 1,300 Climbing Atlanta Center
Thu 07:39:31 AM 36.3522 -80.6822 335° Northwest 369 425 29,100 1,000 Climbing Atlanta Center
Thu 07:40:31 AM 36.4497 -80.7378 335° Northwest 382 440 30,000 900 Climbing Atlanta Center
Thu 07:41:31 AM 36.5372 -80.8142 325° Northwest 387 445 30,900 750 Climbing Atlanta Center
Thu 07:42:31 AM 36.6047 -80.9175 309° West 381 438 31,500 600 Climbing Atlanta Center
Thu 07:43:31 AM 36.6719 -81.0208 309° West 393 452 32,100 600 Climbing Atlanta Center
Thu 07:44:31 AM 36.7367 -81.1194 309° West 399 459 32,700 600 Climbing Atlanta Center
Thu 07:45:31 AM 36.7978 -81.2314 304° West 399 459 33,300 700 Climbing Atlanta Center
Thu 07:46:31 AM 36.8733 -81.3481 309° West 399 459 34,100 750 Climbing Atlanta Center
Thu 07:47:07 AM 36.9189 -81.4119 312° West 400 460 34,500 551 Climbing Indianapolis Center
Thu 07:48:09 AM 36.9844 -81.5183 308° West 399 459 35,000 537 Climbing Indianapolis Center
Thu 07:49:10 AM 37.0525 -81.6294 308° West 401 461 35,600 488 Climbing Indianapolis Center
Thu 07:50:12 AM 37.1214 -81.7403 308° West 403 464 36,000 194 Climbing Indianapolis Center
Thu 07:51:14 AM 37.2039 -81.8736 308° West 412 474 36,000  Level Indianapolis Center
Thu 07:52:15 AM 37.2761 -81.9914 308° West 423 487 36,000  Level Indianapolis Center
Thu 07:53:17 AM 37.3500 -82.1103 308° West 430 495 36,000  Level Indianapolis Center
Thu 07:54:18 AM 37.4228 -82.2300 307° West 432 497 36,000  Level Indianapolis Center
Thu 07:55:20 AM 37.4958 -82.3503 307° West 434 499 36,000  Level Indianapolis Center
Thu 07:56:23 AM 37.5692 -82.4728 307° West 437 503 36,000  Level Indianapolis Center
Thu 07:57:23 AM 37.6422 -82.5944 307° West 437 503 36,000  Level Indianapolis Center
Thu 07:58:25 AM 37.7292 -82.7375 308° West 440 506 36,000  Level Indianapolis Center
Thu 07:59:26 AM 37.8033 -82.8625 307° West 444 511 36,000  Level Indianapolis Center
Thu 08:00:28 AM 37.8778 -82.9881 307° West 446 513 36,000  Level Indianapolis Center
Thu 08:01:30 AM 37.9514 -83.1131 307° West 443 510 36,000  Level Indianapolis Center
Thu 08:02:31 AM 38.0272 -83.2392 307° West 449 517 36,000  Level Indianapolis Center
Thu 08:03:33 AM 38.1022 -83.3658 307° West 449 517 36,000  Level Indianapolis Center
Thu 08:04:35 AM 38.1875 -83.5117 307° West 444 511 36,000  Level Indianapolis Center
Thu 08:05:36 AM 38.2594 -83.6358 306° West 439 505 36,000  Level Indianapolis Center
Thu 08:06:38 AM 38.3308 -83.7586 307° West 434 499 36,000  Level Indianapolis Center
Thu 08:07:40 AM 38.4014 -83.8814 306° West 430 495 36,000  Level Indianapolis Center
Thu 08:08:41 AM 38.4706 -84.0039 306° West 427 491 36,000  Level Indianapolis Center
Thu 08:09:43 AM 38.5414 -84.1242 307° West 424 488 36,000  Level Indianapolis Center
Thu 08:10:45 AM 38.6117 -84.2467 306° West 426 490 36,000  Level Indianapolis Center
Thu 08:11:46 AM 38.6947 -84.3892 307° West 428 493 36,000  Level Indianapolis Center
Thu 08:12:48 AM 38.7664 -84.5142 306° West 434 499 36,000  Level Indianapolis Center
Thu 08:13:50 AM 38.8303 -84.6236 307° West 434 499 36,000  Level Indianapolis Center
Thu 08:14:51 AM 38.9156 -84.7719 306° West 433 498 36,000 -146 Level Indianapolis Center
Thu 08:15:53 AM 38.9875 -84.8950 307° West 433 498 35,700 -823 Descending Indianapolis Center
Thu 08:16:55 AM 39.0581 -85.0175 307° West 429 494 34,300 -1,512 Descending Indianapolis Center
Thu 08:17:56 AM 39.1261 -85.1383 306° West 420 483 32,600 -1,659 Descending Indianapolis Center
Thu 08:18:58 AM 39.1958 -85.2592 307° West 422 486 30,900 -1,500 Descending Indianapolis Center
Thu 08:20:00 AM 39.2653 -85.3806 306° West 423 487 29,500 -1,306 Descending Indianapolis Center
Thu 08:21:02 AM 39.3356 -85.5064 306° West 432 497 28,200 -1,317 Descending Indianapolis Center
Thu 08:22:03 AM 39.4219 -85.6589 306° West 438 504 26,800 -1,268 Descending Indianapolis Center
Thu 08:23:05 AM 39.4931 -85.7861 306° West 439 505 25,600 -1,016 Descending Indianapolis Center
Thu 08:24:07 AM 39.5619 -85.9111 306° West 433 498 24,700 -927 Descending Indianapolis Center
Thu 08:25:08 AM 39.6317 -86.0358 306° West 430 495 23,700 -829 Descending Indianapolis Center
Thu 08:26:10 AM 39.7031 -86.1639 306° West 436 502 23,000 -823 Descending Indianapolis Center
Thu 08:27:12 AM 39.7778 -86.3008 305° West 435 501 22,000 -1,597 Descending Indianapolis Center
Thu 08:28:14 AM 39.8661 -86.3944 321° Northwest 403 464 19,700 -2,634 Descending Indianapolis Center
Thu 08:29:15 AM 39.9639 -86.4506 336° Northwest 388 447 16,600 -3,073 Descending Indianapolis Center
Thu 08:30:17 AM 40.0494 -86.5169 329° Northwest 364 419 13,400 -2,758 Descending Indianapolis Center
Thu 08:31:19 AM 40.1306 -86.5800 329° Northwest 345 397 10,900 -2,865 Descending Indianapolis Center
Thu 08:32:08 AM 40.2100 -86.6150 341° North 304 350 8,100 -2,800 Descending Chicago Center
Thu 08:32:49 AM 40.2606 -86.6364 342° North 308 354 6,700 -2,300 Descending Chicago Center
Thu 08:33:08 AM 40.2858 -86.6497 338° Northwest 297 342 5,800 -2,475 Descending Chicago Center
Thu 08:34:09 AM 40.3642 -86.6819 343° North 282 325 3,400 -1,829 Descending Chicago Center
Thu 08:34:53 AM 40.3856 -86.7244 303° West 270 311 2,600 -1,100 Descending Chicago Center
Thu 08:35:09 AM 40.3906 -86.7600 280° West 209 241 2,300 -290 Descending Chicago Center
Thu 08:35:55 AM 40.3958 -86.7958 281° West 226 260 2,300 -90 Level Chicago Center
Thu 08:36:16 AM 40.3986 -86.8233 278° West 146 168 2,200 -197 Descending Chicago Center
Thu 08:36:56 AM 40.4019 -86.8553 278° West 193 222 2,100 -689 Descending Chicago Center
Thu 08:37:17 AM 40.4028 -86.8728 274° West 120 138 1,500 -1,714 Descending Chicago Center
Thu 08:39:00 AM 40.4000 -86.9333 295° West  Level FlightAware Approximate
Thu 08:46:00 AM 40.4123 -86.9369 295° West  Level Estimated
Thu 08:47:00 AM 40.4123 -86.9369 295° West  Level Estimated

Login

Don't have an account? Register now (free) for customized features, flight alerts, and more!